sensor_id;sensor_type;location;lat;lon;timestamp;P1;durP1;ratioP1;P2;durP2;ratioP2
16099;SDS011;8154;50.830;12.082;2022-09-16T00:00:40;1.55;;;1.10;;
16099;SDS011;8154;50.830;12.082;2022-09-16T00:03:26;1.52;;;1.23;;
16099;SDS011;8154;50.830;12.082;2022-09-16T00:06:18;1.48;;;1.05;;
16099;SDS011;8154;50.830;12.082;2022-09-16T00:09:08;1.95;;;1.17;;
16099;SDS011;8154;50.830;12.082;2022-09-16T00:11:52;1.40;;;1.10;;
16099;SDS011;8154;50.830;12.082;2022-09-16T00:14:37;1.35;;;1.10;;
16099;SDS011;8154;50.830;12.082;2022-09-16T00:17:22;1.10;;;1.00;;
16099;SDS011;8154;50.830;12.082;2022-09-16T00:20:06;1.70;;;1.10;;
16099;SDS011;8154;50.830;12.082;2022-09-16T00:22:52;1.48;;;1.08;;
16099;SDS011;8154;50.830;12.082;2022-09-16T00:25:37;1.55;;;1.10;;
16099;SDS011;8154;50.830;12.082;2022-09-16T00:28:21;1.58;;;1.20;;
16099;SDS011;8154;50.830;12.082;2022-09-16T00:31:06;3.05;;;1.20;;
16099;SDS011;8154;50.830;12.082;2022-09-16T00:33:51;1.20;;;1.10;;
16099;SDS011;8154;50.830;12.082;2022-09-16T00:36:36;1.50;;;1.20;;
16099;SDS011;8154;50.830;12.082;2022-09-16T00:39:20;1.35;;;1.25;;
16099;SDS011;8154;50.830;12.082;2022-09-16T00:42:04;1.20;;;1.10;;
16099;SDS011;8154;50.830;12.082;2022-09-16T00:45:31;1.50;;;1.10;;
16099;SDS011;8154;50.830;12.082;2022-09-16T00:47:57;1.17;;;1.08;;
16099;SDS011;8154;50.830;12.082;2022-09-16T00:50:48;1.20;;;1.10;;
16099;SDS011;8154;50.830;12.082;2022-09-16T00:53:40;1.20;;;1.10;;
16099;SDS011;8154;50.830;12.082;2022-09-16T00:56:29;2.17;;;1.30;;
16099;SDS011;8154;50.830;12.082;2022-09-16T00:59:23;1.20;;;1.10;;
16099;SDS011;8154;50.830;12.082;2022-09-16T01:02:13;1.60;;;1.20;;
16099;SDS011;8154;50.830;12.082;2022-09-16T01:05:02;1.90;;;1.27;;
16099;SDS011;8154;50.830;12.082;2022-09-16T01:07:50;1.85;;;1.27;;
16099;SDS011;8154;50.830;12.082;2022-09-16T01:10:36;1.50;;;1.33;;
16099;SDS011;8154;50.830;12.082;2022-09-16T01:13:25;1.13;;;1.02;;
16099;SDS011;8154;50.830;12.082;2022-09-16T01:19:04;1.20;;;1.10;;
16099;SDS011;8154;50.830;12.082;2022-09-16T01:22:11;1.30;;;1.20;;
16099;SDS011;8154;50.830;12.082;2022-09-16T01:25:36;1.40;;;1.30;;
16099;SDS011;8154;50.830;12.082;2022-09-16T01:44:25;1.20;;;1.10;;
16099;SDS011;8154;50.830;12.082;2022-09-16T01:56:04;1.20;;;1.10;;
16099;SDS011;8154;50.830;12.082;2022-09-16T01:58:55;1.20;;;1.10;;
16099;SDS011;8154;50.830;12.082;2022-09-16T02:04:43;1.40;;;1.20;;
16099;SDS011;8154;50.830;12.082;2022-09-16T02:07:32;1.20;;;1.10;;
16099;SDS011;8154;50.830;12.082;2022-09-16T02:10:23;0.90;;;0.90;;
16099;SDS011;8154;50.830;12.082;2022-09-16T02:16:18;1.20;;;1.10;;
16099;SDS011;8154;50.830;12.082;2022-09-16T02:19:09;0.90;;;0.90;;
16099;SDS011;8154;50.830;12.082;2022-09-16T02:21:58;1.02;;;0.95;;
16099;SDS011;8154;50.830;12.082;2022-09-16T02:24:47;1.58;;;1.10;;
16099;SDS011;8154;50.830;12.082;2022-09-16T02:27:34;1.13;;;1.02;;
16099;SDS011;8154;50.830;12.082;2022-09-16T02:30:21;1.10;;;1.00;;
16099;SDS011;8154;50.830;12.082;2022-09-16T02:33:07;1.15;;;1.10;;
16099;SDS011;8154;50.830;12.082;2022-09-16T02:35:53;1.10;;;1.00;;
16099;SDS011;8154;50.830;12.082;2022-09-16T02:38:45;0.90;;;0.90;;
16099;SDS011;8154;50.830;12.082;2022-09-16T02:41:33;1.20;;;1.10;;
16099;SDS011;8154;50.830;12.082;2022-09-16T02:44:18;1.52;;;1.10;;
16099;SDS011;8154;50.830;12.082;2022-09-16T02:50:05;1.00;;;0.90;;
16099;SDS011;8154;50.830;12.082;2022-09-16T02:53:58;1.30;;;1.02;;
16099;SDS011;8154;50.830;12.082;2022-09-16T02:56:16;1.17;;;0.90;;
16099;SDS011;8154;50.830;12.082;2022-09-16T02:59:10;1.65;;;0.98;;
16099;SDS011;8154;50.830;12.082;2022-09-16T03:01:57;1.83;;;1.08;;
16099;SDS011;8154;50.830;12.082;2022-09-16T03:04:42;0.95;;;0.90;;
16099;SDS011;8154;50.830;12.082;2022-09-16T03:07:29;1.30;;;1.10;;
16099;SDS011;8154;50.830;12.082;2022-09-16T03:10:14;1.15;;;1.05;;
16099;SDS011;8154;50.830;12.082;2022-09-16T03:13:01;1.10;;;1.00;;
16099;SDS011;8154;50.830;12.082;2022-09-16T03:16:11;1.33;;;1.20;;
16099;SDS011;8154;50.830;12.082;2022-09-16T03:19:44;1.10;;;1.00;;
16099;SDS011;8154;50.830;12.082;2022-09-16T03:26:01;1.20;;;1.10;;
16099;SDS011;8154;50.830;12.082;2022-09-16T03:32:22;1.45;;;1.33;;
16099;SDS011;8154;50.830;12.082;2022-09-16T03:35:23;2.22;;;1.33;;
16099;SDS011;8154;50.830;12.082;2022-09-16T03:38:15;1.73;;;1.50;;
16099;SDS011;8154;50.830;12.082;2022-09-16T03:41:05;1.40;;;1.30;;
16099;SDS011;8154;50.830;12.082;2022-09-16T03:43:55;1.52;;;1.30;;
16099;SDS011;8154;50.830;12.082;2022-09-16T03:46:40;1.73;;;1.50;;
16099;SDS011;8154;50.830;12.082;2022-09-16T03:49:24;1.50;;;1.40;;
16099;SDS011;8154;50.830;12.082;2022-09-16T03:52:08;1.40;;;1.30;;
16099;SDS011;8154;50.830;12.082;2022-09-16T03:54:53;1.35;;;1.23;;
16099;SDS011;8154;50.830;12.082;2022-09-16T03:57:37;1.50;;;1.40;;
16099;SDS011;8154;50.830;12.082;2022-09-16T04:00:22;1.45;;;1.35;;
16099;SDS011;8154;50.830;12.082;2022-09-16T04:03:06;1.42;;;1.33;;
16099;SDS011;8154;50.830;12.082;2022-09-16T04:05:53;1.63;;;1.30;;
16099;SDS011;8154;50.830;12.082;2022-09-16T04:08:38;2.10;;;1.40;;
16099;SDS011;8154;50.830;12.082;2022-09-16T04:11:23;1.35;;;1.25;;
16099;SDS011;8154;50.830;12.082;2022-09-16T04:14:08;1.65;;;1.20;;
16099;SDS011;8154;50.830;12.082;2022-09-16T04:16:54;1.95;;;1.30;;
16099;SDS011;8154;50.830;12.082;2022-09-16T04:19:38;1.30;;;1.20;;
16099;SDS011;8154;50.830;12.082;2022-09-16T04:22:23;1.30;;;1.20;;
16099;SDS011;8154;50.830;12.082;2022-09-16T04:25:10;1.48;;;1.38;;
16099;SDS011;8154;50.830;12.082;2022-09-16T04:27:58;1.48;;;1.33;;
16099;SDS011;8154;50.830;12.082;2022-09-16T04:30:43;1.73;;;1.25;;
16099;SDS011;8154;50.830;12.082;2022-09-16T04:33:33;2.33;;;1.30;;
16099;SDS011;8154;50.830;12.082;2022-09-16T04:36:23;1.40;;;1.30;;
16099;SDS011;8154;50.830;12.082;2022-09-16T04:39:07;1.40;;;1.30;;
16099;SDS011;8154;50.830;12.082;2022-09-16T04:41:53;1.60;;;1.45;;
16099;SDS011;8154;50.830;12.082;2022-09-16T04:44:38;1.50;;;1.40;;
16099;SDS011;8154;50.830;12.082;2022-09-16T04:47:22;1.50;;;1.40;;
16099;SDS011;8154;50.830;12.082;2022-09-16T04:50:06;1.40;;;1.30;;
16099;SDS011;8154;50.830;12.082;2022-09-16T04:52:52;1.60;;;1.50;;
16099;SDS011;8154;50.830;12.082;2022-09-16T04:55:36;1.70;;;1.50;;
16099;SDS011;8154;50.830;12.082;2022-09-16T04:58:20;1.75;;;1.55;;
16099;SDS011;8154;50.830;12.082;2022-09-16T05:01:05;1.60;;;1.50;;
16099;SDS011;8154;50.830;12.082;2022-09-16T05:03:52;1.60;;;1.48;;
16099;SDS011;8154;50.830;12.082;2022-09-16T05:06:38;1.92;;;1.73;;
16099;SDS011;8154;50.830;12.082;2022-09-16T05:09:25;1.67;;;1.50;;
16099;SDS011;8154;50.830;12.082;2022-09-16T05:12:09;1.73;;;1.58;;
16099;SDS011;8154;50.830;12.082;2022-09-16T05:14:53;1.58;;;1.48;;
16099;SDS011;8154;50.830;12.082;2022-09-16T05:17:38;1.70;;;1.60;;
16099;SDS011;8154;50.830;12.082;2022-09-16T05:20:23;1.65;;;1.50;;
16099;SDS011;8154;50.830;12.082;2022-09-16T05:23:07;2.38;;;1.67;;
16099;SDS011;8154;50.830;12.082;2022-09-16T05:25:51;2.17;;;1.40;;
16099;SDS011;8154;50.830;12.082;2022-09-16T05:28:37;1.55;;;1.45;;
16099;SDS011;8154;50.830;12.082;2022-09-16T05:31:25;1.65;;;1.55;;
16099;SDS011;8154;50.830;12.082;2022-09-16T05:34:12;1.67;;;1.58;;
16099;SDS011;8154;50.830;12.082;2022-09-16T05:37:01;1.70;;;1.60;;
16099;SDS011;8154;50.830;12.082;2022-09-16T05:39:46;2.25;;;1.48;;
16099;SDS011;8154;50.830;12.082;2022-09-16T05:42:30;1.90;;;1.40;;
16099;SDS011;8154;50.830;12.082;2022-09-16T05:45:14;1.60;;;1.50;;
16099;SDS011;8154;50.830;12.082;2022-09-16T05:47:59;1.58;;;1.48;;
16099;SDS011;8154;50.830;12.082;2022-09-16T05:50:55;1.58;;;1.45;;
16099;SDS011;8154;50.830;12.082;2022-09-16T05:53:49;1.58;;;1.48;;
16099;SDS011;8154;50.830;12.082;2022-09-16T05:56:35;1.70;;;1.58;;
16099;SDS011;8154;50.830;12.082;2022-09-16T05:59:20;1.85;;;1.40;;
16099;SDS011;8154;50.830;12.082;2022-09-16T06:02:07;1.65;;;1.50;;
16099;SDS011;8154;50.830;12.082;2022-09-16T06:04:51;1.50;;;1.40;;
16099;SDS011;8154;50.830;12.082;2022-09-16T06:07:36;1.58;;;1.48;;
16099;SDS011;8154;50.830;12.082;2022-09-16T06:10:20;1.40;;;1.30;;
16099;SDS011;8154;50.830;12.082;2022-09-16T06:13:05;1.40;;;1.30;;
16099;SDS011;8154;50.830;12.082;2022-09-16T06:15:51;1.63;;;1.50;;
16099;SDS011;8154;50.830;12.082;2022-09-16T06:18:37;1.35;;;1.25;;
16099;SDS011;8154;50.830;12.082;2022-09-16T06:21:22;1.48;;;1.38;;
16099;SDS011;8154;50.830;12.082;2022-09-16T06:24:08;1.60;;;1.50;;
16099;SDS011;8154;50.830;12.082;2022-09-16T06:26:53;1.42;;;1.30;;
16099;SDS011;8154;50.830;12.082;2022-09-16T06:29:39;1.45;;;1.30;;
16099;SDS011;8154;50.830;12.082;2022-09-16T06:32:25;1.48;;;1.38;;
16099;SDS011;8154;50.830;12.082;2022-09-16T06:35:14;2.45;;;1.30;;
16099;SDS011;8154;50.830;12.082;2022-09-16T06:37:58;1.20;;;1.10;;
16099;SDS011;8154;50.830;12.082;2022-09-16T06:40:44;2.20;;;1.30;;
16099;SDS011;8154;50.830;12.082;2022-09-16T06:43:28;1.40;;;1.30;;
16099;SDS011;8154;50.830;12.082;2022-09-16T06:46:14;1.33;;;1.23;;
16099;SDS011;8154;50.830;12.082;2022-09-16T06:49:03;1.58;;;1.40;;
16099;SDS011;8154;50.830;12.082;2022-09-16T06:51:48;1.40;;;1.30;;
16099;SDS011;8154;50.830;12.082;2022-09-16T06:54:34;1.40;;;1.30;;
16099;SDS011;8154;50.830;12.082;2022-09-16T06:57:18;1.27;;;1.17;;
16099;SDS011;8154;50.830;12.082;2022-09-16T07:00:07;1.42;;;1.30;;
16099;SDS011;8154;50.830;12.082;2022-09-16T07:02:52;1.40;;;1.30;;
16099;SDS011;8154;50.830;12.082;2022-09-16T07:05:37;2.03;;;1.30;;
16099;SDS011;8154;50.830;12.082;2022-09-16T07:08:22;1.30;;;1.20;;
16099;SDS011;8154;50.830;12.082;2022-09-16T07:11:07;1.30;;;1.20;;
16099;SDS011;8154;50.830;12.082;2022-09-16T07:13:54;1.48;;;1.38;;
16099;SDS011;8154;50.830;12.082;2022-09-16T07:16:38;1.30;;;1.20;;
16099;SDS011;8154;50.830;12.082;2022-09-16T07:19:23;1.60;;;1.30;;
16099;SDS011;8154;50.830;12.082;2022-09-16T07:22:08;1.30;;;1.20;;
16099;SDS011;8154;50.830;12.082;2022-09-16T07:24:54;1.40;;;1.30;;
16099;SDS011;8154;50.830;12.082;2022-09-16T07:27:38;1.13;;;1.02;;
16099;SDS011;8154;50.830;12.082;2022-09-16T07:30:23;1.20;;;1.10;;
16099;SDS011;8154;50.830;12.082;2022-09-16T07:33:07;1.40;;;1.30;;
16099;SDS011;8154;50.830;12.082;2022-09-16T07:35:51;1.30;;;1.20;;
16099;SDS011;8154;50.830;12.082;2022-09-16T07:38:36;1.10;;;1.10;;
16099;SDS011;8154;50.830;12.082;2022-09-16T07:41:23;1.30;;;1.20;;
16099;SDS011;8154;50.830;12.082;2022-09-16T07:44:12;1.40;;;1.30;;
16099;SDS011;8154;50.830;12.082;2022-09-16T07:46:59;1.40;;;1.20;;
16099;SDS011;8154;50.830;12.082;2022-09-16T07:49:43;1.13;;;1.02;;
16099;SDS011;8154;50.830;12.082;2022-09-16T07:52:27;1.88;;;1.20;;
16099;SDS011;8154;50.830;12.082;2022-09-16T07:55:12;1.67;;;1.20;;
16099;SDS011;8154;50.830;12.082;2022-09-16T07:57:59;1.33;;;1.23;;
16099;SDS011;8154;50.830;12.082;2022-09-16T08:00:44;1.67;;;1.25;;
16099;SDS011;8154;50.830;12.082;2022-09-16T08:03:29;1.17;;;1.08;;
16099;SDS011;8154;50.830;12.082;2022-09-16T08:06:23;1.00;;;1.00;;
16099;SDS011;8154;50.830;12.082;2022-09-16T08:09:12;1.20;;;1.10;;
16099;SDS011;8154;50.830;12.082;2022-09-16T08:11:58;1.30;;;1.20;;
16099;SDS011;8154;50.830;12.082;2022-09-16T08:14:45;1.17;;;1.10;;
16099;SDS011;8154;50.830;12.082;2022-09-16T08:17:29;1.25;;;1.13;;
16099;SDS011;8154;50.830;12.082;2022-09-16T08:20:13;1.20;;;1.10;;
16099;SDS011;8154;50.830;12.082;2022-09-16T08:22:58;1.15;;;1.05;;
16099;SDS011;8154;50.830;12.082;2022-09-16T08:25:42;1.67;;;1.00;;
16099;SDS011;8154;50.830;12.082;2022-09-16T08:28:28;1.30;;;1.20;;
16099;SDS011;8154;50.830;12.082;2022-09-16T08:31:15;1.20;;;1.10;;
16099;SDS011;8154;50.830;12.082;2022-09-16T08:34:00;1.20;;;1.10;;
16099;SDS011;8154;50.830;12.082;2022-09-16T08:36:45;1.20;;;1.10;;
16099;SDS011;8154;50.830;12.082;2022-09-16T08:39:29;1.33;;;1.05;;
16099;SDS011;8154;50.830;12.082;2022-09-16T08:51:38;1.05;;;1.00;;
16099;SDS011;8154;50.830;12.082;2022-09-16T08:54:30;1.30;;;1.00;;
16099;SDS011;8154;50.830;12.082;2022-09-16T08:57:21;1.88;;;1.20;;
16099;SDS011;8154;50.830;12.082;2022-09-16T09:00:11;1.20;;;1.10;;
16099;SDS011;8154;50.830;12.082;2022-09-16T09:03:05;1.10;;;1.00;;
16099;SDS011;8154;50.830;12.082;2022-09-16T09:06:11;1.10;;;1.00;;
16099;SDS011;8154;50.830;12.082;2022-09-16T09:19:47;1.00;;;0.90;;
16099;SDS011;8154;50.830;12.082;2022-09-16T09:45:25;1.10;;;1.00;;
16099;SDS011;8154;50.830;12.082;2022-09-16T09:48:21;1.17;;;1.00;;
16099;SDS011;8154;50.830;12.082;2022-09-16T09:51:16;1.42;;;1.10;;
16099;SDS011;8154;50.830;12.082;2022-09-16T09:54:26;1.20;;;1.10;;
16099;SDS011;8154;50.830;12.082;2022-09-16T09:57:15;1.30;;;1.20;;
16099;SDS011;8154;50.830;12.082;2022-09-16T10:00:33;1.27;;;1.17;;
16099;SDS011;8154;50.830;12.082;2022-09-16T10:03:18;1.27;;;1.17;;
16099;SDS011;8154;50.830;12.082;2022-09-16T10:06:09;1.42;;;1.30;;
16099;SDS011;8154;50.830;12.082;2022-09-16T10:08:55;1.50;;;1.30;;
16099;SDS011;8154;50.830;12.082;2022-09-16T10:11:49;1.17;;;1.10;;
16099;SDS011;8154;50.830;12.082;2022-09-16T10:14:39;1.30;;;1.20;;
16099;SDS011;8154;50.830;12.082;2022-09-16T10:17:30;1.40;;;1.13;;
16099;SDS011;8154;50.830;12.082;2022-09-16T10:20:32;1.40;;;1.30;;
16099;SDS011;8154;50.830;12.082;2022-09-16T10:23:22;1.30;;;1.20;;
16099;SDS011;8154;50.830;12.082;2022-09-16T10:26:18;1.33;;;1.23;;
16099;SDS011;8154;50.830;12.082;2022-09-16T10:29:15;1.17;;;1.15;;
16099;SDS011;8154;50.830;12.082;2022-09-16T10:32:00;1.25;;;1.20;;
16099;SDS011;8154;50.830;12.082;2022-09-16T10:34:54;1.27;;;1.17;;
16099;SDS011;8154;50.830;12.082;2022-09-16T10:37:40;1.42;;;1.20;;
16099;SDS011;8154;50.830;12.082;2022-09-16T10:40:49;1.10;;;1.00;;
16099;SDS011;8154;50.830;12.082;2022-09-16T10:43:38;1.38;;;1.20;;
16099;SDS011;8154;50.830;12.082;2022-09-16T10:46:33;1.05;;;1.05;;
16099;SDS011;8154;50.830;12.082;2022-09-16T10:49:20;1.73;;;1.20;;
16099;SDS011;8154;50.830;12.082;2022-09-16T10:58:18;1.10;;;1.02;;
16099;SDS011;8154;50.830;12.082;2022-09-16T11:23:04;1.20;;;1.10;;
16099;SDS011;8154;50.830;12.082;2022-09-16T11:59:23;1.55;;;1.20;;
16099;SDS011;8154;50.830;12.082;2022-09-16T12:14:30;1.30;;;1.08;;
16099;SDS011;8154;50.830;12.082;2022-09-16T12:17:38;1.42;;;1.30;;
16099;SDS011;8154;50.830;12.082;2022-09-16T12:20:28;1.38;;;1.23;;
16099;SDS011;8154;50.830;12.082;2022-09-16T12:23:22;1.55;;;1.30;;
16099;SDS011;8154;50.830;12.082;2022-09-16T12:26:17;1.30;;;1.20;;
16099;SDS011;8154;50.830;12.082;2022-09-16T12:29:04;1.30;;;1.20;;
16099;SDS011;8154;50.830;12.082;2022-09-16T12:32:06;1.23;;;1.13;;
16099;SDS011;8154;50.830;12.082;2022-09-16T12:35:02;1.70;;;1.20;;
16099;SDS011;8154;50.830;12.082;2022-09-16T12:37:55;1.20;;;1.10;;
16099;SDS011;8154;50.830;12.082;2022-09-16T12:44:04;1.27;;;1.17;;
16099;SDS011;8154;50.830;12.082;2022-09-16T13:02:46;1.50;;;1.10;;
16099;SDS011;8154;50.830;12.082;2022-09-16T13:05:44;1.30;;;1.20;;
16099;SDS011;8154;50.830;12.082;2022-09-16T13:08:35;1.30;;;1.20;;
16099;SDS011;8154;50.830;12.082;2022-09-16T13:11:24;1.30;;;1.20;;
16099;SDS011;8154;50.830;12.082;2022-09-16T13:14:21;1.27;;;1.00;;
16099;SDS011;8154;50.830;12.082;2022-09-16T13:17:08;1.27;;;1.17;;
16099;SDS011;8154;50.830;12.082;2022-09-16T13:19:53;1.30;;;1.20;;
16099;SDS011;8154;50.830;12.082;2022-09-16T13:23:05;1.67;;;1.17;;
16099;SDS011;8154;50.830;12.082;2022-09-16T13:26:00;1.30;;;1.20;;
16099;SDS011;8154;50.830;12.082;2022-09-16T13:29:53;1.13;;;1.10;;
16099;SDS011;8154;50.830;12.082;2022-09-16T13:32:26;1.30;;;1.20;;
16099;SDS011;8154;50.830;12.082;2022-09-16T13:36:00;1.20;;;1.10;;
16099;SDS011;8154;50.830;12.082;2022-09-16T13:38:54;1.00;;;1.00;;
16099;SDS011;8154;50.830;12.082;2022-09-16T13:41:44;1.13;;;1.02;;
16099;SDS011;8154;50.830;12.082;2022-09-16T13:47:29;1.20;;;1.10;;
16099;SDS011;8154;50.830;12.082;2022-09-16T13:50:17;1.20;;;1.10;;
16099;SDS011;8154;50.830;12.082;2022-09-16T13:53:08;1.15;;;1.10;;
16099;SDS011;8154;50.830;12.082;2022-09-16T14:00:04;0.90;;;0.90;;
16099;SDS011;8154;50.830;12.082;2022-09-16T14:08:26;1.10;;;1.08;;
16099;SDS011;8154;50.830;12.082;2022-09-16T14:11:44;1.00;;;1.00;;
16099;SDS011;8154;50.830;12.082;2022-09-16T14:14:34;1.10;;;1.00;;
16099;SDS011;8154;50.830;12.082;2022-09-16T14:17:22;1.08;;;1.00;;
16099;SDS011;8154;50.830;12.082;2022-09-16T14:20:14;1.27;;;1.10;;
16099;SDS011;8154;50.830;12.082;2022-09-16T14:23:02;1.00;;;1.00;;
16099;SDS011;8154;50.830;12.082;2022-09-16T14:25:48;1.50;;;1.00;;
16099;SDS011;8154;50.830;12.082;2022-09-16T14:28:33;1.08;;;1.00;;
16099;SDS011;8154;50.830;12.082;2022-09-16T14:31:19;0.90;;;0.90;;
16099;SDS011;8154;50.830;12.082;2022-09-16T14:34:05;1.10;;;1.00;;
16099;SDS011;8154;50.830;12.082;2022-09-16T14:36:53;1.08;;;1.02;;
16099;SDS011;8154;50.830;12.082;2022-09-16T14:39:37;1.10;;;1.10;;
16099;SDS011;8154;50.830;12.082;2022-09-16T14:42:24;1.20;;;1.10;;
16099;SDS011;8154;50.830;12.082;2022-09-16T14:45:10;1.20;;;1.10;;
16099;SDS011;8154;50.830;12.082;2022-09-16T14:48:00;1.10;;;1.10;;
16099;SDS011;8154;50.830;12.082;2022-09-16T14:50:58;0.80;;;0.80;;
16099;SDS011;8154;50.830;12.082;2022-09-16T14:53:52;1.05;;;0.95;;
16099;SDS011;8154;50.830;12.082;2022-09-16T14:56:39;1.13;;;1.02;;
16099;SDS011;8154;50.830;12.082;2022-09-16T14:59:24;1.20;;;1.10;;
16099;SDS011;8154;50.830;12.082;2022-09-16T15:02:15;0.95;;;0.95;;
16099;SDS011;8154;50.830;12.082;2022-09-16T15:11:04;1.08;;;1.00;;
16099;SDS011;8154;50.830;12.082;2022-09-16T15:13:59;0.90;;;0.90;;
16099;SDS011;8154;50.830;12.082;2022-09-16T15:16:45;0.98;;;0.88;;
16099;SDS011;8154;50.830;12.082;2022-09-16T15:19:34;0.90;;;0.90;;
16099;SDS011;8154;50.830;12.082;2022-09-16T15:22:20;0.90;;;0.90;;
16099;SDS011;8154;50.830;12.082;2022-09-16T15:25:16;0.80;;;0.80;;
16099;SDS011;8154;50.830;12.082;2022-09-16T15:28:15;0.90;;;0.90;;
16099;SDS011;8154;50.830;12.082;2022-09-16T15:31:01;0.88;;;0.88;;
16099;SDS011;8154;50.830;12.082;2022-09-16T15:33:50;0.90;;;0.90;;
16099;SDS011;8154;50.830;12.082;2022-09-16T15:36:36;0.80;;;0.80;;
16099;SDS011;8154;50.830;12.082;2022-09-16T15:39:25;1.00;;;1.00;;
16099;SDS011;8154;50.830;12.082;2022-09-16T15:45:02;1.00;;;1.00;;
16099;SDS011;8154;50.830;12.082;2022-09-16T15:48:00;1.15;;;0.90;;
16099;SDS011;8154;50.830;12.082;2022-09-16T15:51:07;1.10;;;1.00;;
16099;SDS011;8154;50.830;12.082;2022-09-16T15:54:06;1.00;;;0.90;;
16099;SDS011;8154;50.830;12.082;2022-09-16T16:00:18;1.48;;;0.90;;
16099;SDS011;8154;50.830;12.082;2022-09-16T16:03:03;0.90;;;0.90;;
16099;SDS011;8154;50.830;12.082;2022-09-16T16:06:03;0.90;;;0.90;;
16099;SDS011;8154;50.830;12.082;2022-09-16T16:09:01;0.90;;;0.90;;
16099;SDS011;8154;50.830;12.082;2022-09-16T16:11:50;0.80;;;0.80;;
16099;SDS011;8154;50.830;12.082;2022-09-16T16:14:42;0.90;;;0.90;;
16099;SDS011;8154;50.830;12.082;2022-09-16T16:17:27;1.05;;;1.05;;
16099;SDS011;8154;50.830;12.082;2022-09-16T16:20:15;0.90;;;0.90;;
16099;SDS011;8154;50.830;12.082;2022-09-16T16:23:01;0.93;;;0.93;;
16099;SDS011;8154;50.830;12.082;2022-09-16T16:25:46;0.88;;;0.88;;
16099;SDS011;8154;50.830;12.082;2022-09-16T16:28:31;0.95;;;0.93;;
16099;SDS011;8154;50.830;12.082;2022-09-16T16:31:18;1.05;;;1.02;;
16099;SDS011;8154;50.830;12.082;2022-09-16T16:34:02;0.98;;;0.98;;
16099;SDS011;8154;50.830;12.082;2022-09-16T16:36:53;1.02;;;1.00;;
16099;SDS011;8154;50.830;12.082;2022-09-16T16:39:37;1.00;;;0.90;;
16099;SDS011;8154;50.830;12.082;2022-09-16T16:42:22;1.00;;;1.00;;
16099;SDS011;8154;50.830;12.082;2022-09-16T16:45:07;1.00;;;1.00;;
16099;SDS011;8154;50.830;12.082;2022-09-16T16:47:51;0.85;;;0.85;;
16099;SDS011;8154;50.830;12.082;2022-09-16T16:50:35;1.00;;;1.00;;
16099;SDS011;8154;50.830;12.082;2022-09-16T16:53:20;0.90;;;0.90;;
16099;SDS011;8154;50.830;12.082;2022-09-16T16:56:09;0.90;;;0.90;;
16099;SDS011;8154;50.830;12.082;2022-09-16T16:58:59;1.20;;;1.10;;
16099;SDS011;8154;50.830;12.082;2022-09-16T17:01:44;1.00;;;1.00;;
16099;SDS011;8154;50.830;12.082;2022-09-16T17:04:36;0.90;;;0.90;;
16099;SDS011;8154;50.830;12.082;2022-09-16T17:07:25;0.98;;;0.98;;
16099;SDS011;8154;50.830;12.082;2022-09-16T17:10:11;0.88;;;0.88;;
16099;SDS011;8154;50.830;12.082;2022-09-16T17:12:56;0.80;;;0.80;;
16099;SDS011;8154;50.830;12.082;2022-09-16T17:15:41;1.75;;;1.00;;
16099;SDS011;8154;50.830;12.082;2022-09-16T17:18:26;0.82;;;0.82;;
16099;SDS011;8154;50.830;12.082;2022-09-16T17:21:12;1.55;;;1.08;;
16099;SDS011;8154;50.830;12.082;2022-09-16T17:23:57;1.00;;;0.90;;
16099;SDS011;8154;50.830;12.082;2022-09-16T17:26:48;0.80;;;0.80;;
16099;SDS011;8154;50.830;12.082;2022-09-16T17:29:32;0.90;;;0.90;;
16099;SDS011;8154;50.830;12.082;2022-09-16T17:32:18;0.90;;;0.90;;
16099;SDS011;8154;50.830;12.082;2022-09-16T17:35:08;0.90;;;0.90;;
16099;SDS011;8154;50.830;12.082;2022-09-16T17:37:55;0.90;;;0.90;;
16099;SDS011;8154;50.830;12.082;2022-09-16T17:40:42;1.00;;;0.90;;
16099;SDS011;8154;50.830;12.082;2022-09-16T17:43:30;1.10;;;1.00;;
16099;SDS011;8154;50.830;12.082;2022-09-16T17:46:23;1.13;;;1.02;;
16099;SDS011;8154;50.830;12.082;2022-09-16T17:49:17;0.93;;;0.93;;
16099;SDS011;8154;50.830;12.082;2022-09-16T17:52:07;0.80;;;0.80;;
16099;SDS011;8154;50.830;12.082;2022-09-16T17:54:52;0.80;;;0.80;;
16099;SDS011;8154;50.830;12.082;2022-09-16T17:57:39;0.90;;;0.90;;
16099;SDS011;8154;50.830;12.082;2022-09-16T18:00:27;1.20;;;1.10;;
16099;SDS011;8154;50.830;12.082;2022-09-16T18:03:12;0.90;;;0.90;;
16099;SDS011;8154;50.830;12.082;2022-09-16T18:06:08;0.90;;;0.90;;
16099;SDS011;8154;50.830;12.082;2022-09-16T18:09:00;1.00;;;1.00;;
16099;SDS011;8154;50.830;12.082;2022-09-16T18:11:46;1.10;;;1.00;;
16099;SDS011;8154;50.830;12.082;2022-09-16T18:14:31;0.90;;;0.90;;
16099;SDS011;8154;50.830;12.082;2022-09-16T18:17:16;1.05;;;1.00;;
16099;SDS011;8154;50.830;12.082;2022-09-16T18:20:02;1.20;;;1.10;;
16099;SDS011;8154;50.830;12.082;2022-09-16T18:22:47;0.90;;;0.90;;
16099;SDS011;8154;50.830;12.082;2022-09-16T18:25:31;1.00;;;0.90;;
16099;SDS011;8154;50.830;12.082;2022-09-16T18:28:21;1.00;;;1.00;;
16099;SDS011;8154;50.830;12.082;2022-09-16T18:31:07;0.90;;;0.90;;
16099;SDS011;8154;50.830;12.082;2022-09-16T18:33:54;1.70;;;0.93;;
16099;SDS011;8154;50.830;12.082;2022-09-16T18:36:39;1.30;;;1.05;;
16099;SDS011;8154;50.830;12.082;2022-09-16T18:39:24;1.42;;;1.10;;
16099;SDS011;8154;50.830;12.082;2022-09-16T18:42:21;1.77;;;1.00;;
16099;SDS011;8154;50.830;12.082;2022-09-16T18:45:06;1.00;;;1.00;;
16099;SDS011;8154;50.830;12.082;2022-09-16T18:47:51;0.90;;;0.90;;
16099;SDS011;8154;50.830;12.082;2022-09-16T18:50:36;0.98;;;0.90;;
16099;SDS011;8154;50.830;12.082;2022-09-16T18:53:21;1.00;;;0.95;;
16099;SDS011;8154;50.830;12.082;2022-09-16T18:56:09;0.93;;;0.90;;
16099;SDS011;8154;50.830;12.082;2022-09-16T18:59:40;0.98;;;0.98;;
16099;SDS011;8154;50.830;12.082;2022-09-16T19:02:13;1.10;;;1.00;;
16099;SDS011;8154;50.830;12.082;2022-09-16T19:04:57;1.00;;;1.00;;
16099;SDS011;8154;50.830;12.082;2022-09-16T19:07:42;1.00;;;1.00;;
16099;SDS011;8154;50.830;12.082;2022-09-16T19:10:26;1.00;;;1.00;;
16099;SDS011;8154;50.830;12.082;2022-09-16T19:13:12;1.20;;;1.10;;
16099;SDS011;8154;50.830;12.082;2022-09-16T19:15:56;0.90;;;0.90;;
16099;SDS011;8154;50.830;12.082;2022-09-16T19:18:42;1.33;;;0.90;;
16099;SDS011;8154;50.830;12.082;2022-09-16T19:21:29;1.02;;;1.00;;
16099;SDS011;8154;50.830;12.082;2022-09-16T19:24:25;1.05;;;1.05;;
16099;SDS011;8154;50.830;12.082;2022-09-16T19:27:09;1.10;;;1.00;;
16099;SDS011;8154;50.830;12.082;2022-09-16T19:29:54;1.00;;;1.00;;
16099;SDS011;8154;50.830;12.082;2022-09-16T19:32:39;1.00;;;0.90;;
16099;SDS011;8154;50.830;12.082;2022-09-16T19:35:28;0.98;;;0.98;;
16099;SDS011;8154;50.830;12.082;2022-09-16T19:38:14;0.98;;;0.98;;
16099;SDS011;8154;50.830;12.082;2022-09-16T19:41:02;1.20;;;1.10;;
16099;SDS011;8154;50.830;12.082;2022-09-16T19:43:58;1.00;;;1.00;;
16099;SDS011;8154;50.830;12.082;2022-09-16T19:46:44;1.17;;;1.00;;
16099;SDS011;8154;50.830;12.082;2022-09-16T19:49:31;1.58;;;1.10;;
16099;SDS011;8154;50.830;12.082;2022-09-16T19:52:18;1.10;;;1.00;;
16099;SDS011;8154;50.830;12.082;2022-09-16T19:55:12;1.00;;;1.00;;
16099;SDS011;8154;50.830;12.082;2022-09-16T19:57:57;1.08;;;1.08;;
16099;SDS011;8154;50.830;12.082;2022-09-16T20:00:42;1.00;;;1.00;;
16099;SDS011;8154;50.830;12.082;2022-09-16T20:03:31;1.17;;;1.08;;
16099;SDS011;8154;50.830;12.082;2022-09-16T20:06:17;1.45;;;1.10;;
16099;SDS011;8154;50.830;12.082;2022-09-16T20:09:07;1.10;;;1.00;;
16099;SDS011;8154;50.830;12.082;2022-09-16T20:12:02;0.85;;;0.85;;
16099;SDS011;8154;50.830;12.082;2022-09-16T20:14:57;1.10;;;1.00;;
16099;SDS011;8154;50.830;12.082;2022-09-16T20:17:44;1.00;;;1.00;;
16099;SDS011;8154;50.830;12.082;2022-09-16T20:20:33;1.00;;;0.90;;
16099;SDS011;8154;50.830;12.082;2022-09-16T20:23:50;1.05;;;1.05;;